Time;durP1;ratioP1;P1;durP2;ratioP2;P2;SDS_P1;SDS_P2;PMS_P1;PMS_P2;Temp;Humidity;BMP_temperature;BMP_pressure;BME280_temperature;BME280_humidity;BME280_pressure;Samples;Min_cycle;Max_cycle;Signal;HPM_P1;HPM_P2
2021/11/09 00:01:14;;;;;;;9.65;4.28;;;;;;;8.48;68.07;100792.72;5104567;28;20044;-67
2021/11/09 00:03:47;;;;;;;11.05;5.15;;;;;;;8.48;68.08;100798.00;5103755;28;20685;-67
2021/11/09 00:06:21;;;;;;;12.45;6.20;;;;;;;8.49;68.12;100799.66;5104182;28;20065;-71
2021/11/09 00:08:55;;;;;;;12.55;6.43;;;;;;;8.47;68.18;100803.34;5104363;28;20510;-69
2021/11/09 00:11:23;;;;;;;7.82;5.57;;;;;;;8.46;68.17;100812.16;5104872;28;20502;-70
2021/11/09 00:13:50;;;;;;;13.00;7.35;;;;;;;8.47;68.18;100808.59;5105065;28;20105;-71
2021/11/09 00:16:17;;;;;;;12.40;6.20;;;;;;;8.49;68.24;100812.84;5111840;27;20047;-71
2021/11/09 00:18:45;;;;;;;12.80;7.10;;;;;;;8.51;68.20;100813.59;5106354;27;20075;-70
2021/11/09 00:21:12;;;;;;;10.27;7.20;;;;;;;8.54;68.03;100818.69;5106515;27;20047;-71
2021/11/09 00:23:39;;;;;;;11.85;7.90;;;;;;;8.55;68.18;100809.88;5125390;27;20075;-71
2021/11/09 00:26:08;;;;;;;14.40;7.80;;;;;;;8.56;68.07;100816.81;5124909;27;20122;-69
2021/11/09 00:28:35;;;;;;;10.45;5.95;;;;;;;8.58;68.08;100822.84;5123308;27;20094;-70
2021/11/09 00:31:02;;;;;;;12.35;7.10;;;;;;;8.60;67.98;100820.97;5125035;27;20067;-71
2021/11/09 00:33:30;;;;;;;14.70;6.85;;;;;;;8.61;68.23;100820.06;5124206;27;20066;-68
2021/11/09 00:35:57;;;;;;;10.80;6.63;;;;;;;8.63;68.17;100830.50;5125968;27;20517;-70
2021/11/09 00:38:24;;;;;;;12.82;5.60;;;;;;;8.63;68.09;100827.03;5125374;27;20051;-69
2021/11/09 00:40:51;;;;;;;10.95;6.13;;;;;;;8.63;68.25;100824.41;5124698;27;20039;-68
2021/11/09 00:43:20;;;;;;;15.10;6.78;;;;;;;8.61;68.39;100822.69;5125867;28;20058;-70
2021/11/09 00:45:48;;;;;;;19.42;7.18;;;;;;;8.63;68.35;100832.31;5125290;27;20050;-68
2021/11/09 00:48:15;;;;;;;14.10;7.32;;;;;;;8.66;68.21;100840.88;5125166;28;20043;-69
2021/11/09 00:50:45;;;;;;;13.50;8.05;;;;;;;8.70;68.21;100852.94;5125079;28;20051;-69
2021/11/09 00:53:14;;;;;;;14.15;7.75;;;;;;;8.75;68.04;100850.03;5127111;28;20048;-69
2021/11/09 00:55:42;;;;;;;18.08;9.98;;;;;;;8.79;68.20;100860.34;5125062;28;20482;-72
2021/11/09 00:58:09;;;;;;;21.80;12.98;;;;;;;8.83;68.16;100861.00;5118968;28;20043;-71
2021/11/09 01:00:39;;;;;;;20.55;12.35;;;;;;;8.81;68.25;100860.25;5111754;28;20124;-69
2021/11/09 01:03:09;;;;;;;18.27;10.50;;;;;;;8.80;68.27;100862.03;5112269;28;20067;-71
2021/11/09 01:05:36;;;;;;;14.75;8.80;;;;;;;8.81;68.03;100862.88;5105929;28;20726;-70
2021/11/09 01:08:09;;;;;;;14.00;8.55;;;;;;;8.81;68.19;100868.16;5106726;28;20048;-69
2021/11/09 01:10:40;;;;;;;13.02;6.90;;;;;;;8.78;68.13;100861.25;5126108;28;20047;-69
2021/11/09 01:13:09;;;;;;;10.50;6.68;;;;;;;8.67;68.34;100850.47;5125098;28;20054;-68
2021/11/09 01:15:43;;;;;;;13.77;6.55;;;;;;;8.60;68.19;100870.16;5126463;28;20496;-68
2021/11/09 01:18:10;;;;;;;11.02;6.18;;;;;;;8.51;68.41;100860.97;5125159;28;20051;-71
2021/11/09 01:20:38;;;;;;;11.27;5.90;;;;;;;8.47;68.56;100871.78;5124977;28;20120;-69
2021/11/09 01:23:06;;;;;;;11.82;6.70;;;;;;;8.41;68.51;100878.19;5124771;28;20055;-70
2021/11/09 01:25:33;;;;;;;15.98;6.47;;;;;;;8.34;68.47;100876.81;5127395;28;20047;-70
2021/11/09 01:28:01;;;;;;;12.95;7.95;;;;;;;8.31;68.43;100876.97;5122551;28;20051;-68
2021/11/09 01:30:29;;;;;;;15.25;7.35;;;;;;;8.29;68.44;100882.31;5125472;28;20092;-71
2021/11/09 01:32:58;;;;;;;13.57;6.32;;;;;;;8.28;68.59;100888.50;5130761;28;20254;-70
2021/11/09 01:35:25;;;;;;;10.60;7.13;;;;;;;8.27;68.47;100888.59;5134172;28;20054;-71
2021/11/09 01:37:52;;;;;;;14.90;5.65;;;;;;;8.24;68.46;100890.44;5132837;28;20047;-70
2021/11/09 01:40:21;;;;;;;13.48;8.15;;;;;;;8.19;68.39;100887.22;5131997;28;20054;-70
2021/11/09 01:42:49;;;;;;;14.50;6.97;;;;;;;8.13;68.52;100890.16;5131902;28;20053;-70
2021/11/09 01:45:16;;;;;;;13.32;7.57;;;;;;;8.11;68.73;100892.03;5131232;28;20047;-69
2021/11/09 01:47:45;;;;;;;12.40;7.07;;;;;;;8.11;68.55;100892.03;5128352;28;20043;-71
2021/11/09 01:50:18;;;;;;;12.05;7.25;;;;;;;8.12;68.56;100893.75;5125854;28;20050;-71
2021/11/09 01:52:45;;;;;;;19.75;8.18;;;;;;;8.11;68.44;100891.19;5125439;28;20495;-71
2021/11/09 01:55:17;;;;;;;13.00;6.45;;;;;;;8.11;68.32;100894.66;5125405;28;20043;-71
2021/11/09 01:57:44;;;;;;;12.13;7.13;;;;;;;8.07;68.34;100887.00;5125842;27;20354;-70
2021/11/09 02:00:18;;;;;;;12.20;7.13;;;;;;;8.02;68.20;100892.50;5129029;27;20218;-69
2021/11/09 02:02:46;;;;;;;10.88;5.88;;;;;;;7.99;68.51;100895.28;5129274;27;20126;-69
2021/11/09 02:05:15;;;;;;;14.23;7.07;;;;;;;7.99;68.45;100900.53;5111464;27;20122;-69
2021/11/09 02:07:45;;;;;;;10.63;6.10;;;;;;;8.02;68.41;100908.28;5129458;27;20072;-70
2021/11/09 02:10:13;;;;;;;13.07;6.78;;;;;;;8.05;68.29;100908.13;5129256;27;20061;-71
2021/11/09 02:12:41;;;;;;;10.65;6.28;;;;;;;8.04;68.22;100914.31;5128256;27;20143;-70
2021/11/09 02:15:09;;;;;;;12.57;7.25;;;;;;;8.03;68.17;100918.75;5128525;27;20043;-70
2021/11/09 02:17:38;;;;;;;13.65;7.10;;;;;;;8.00;68.15;100918.03;5128558;27;20055;-70
2021/11/09 02:20:07;;;;;;;9.48;6.35;;;;;;;8.01;68.27;100920.59;5128684;27;20180;-72
2021/11/09 02:22:36;;;;;;;12.48;6.68;;;;;;;8.00;68.21;100918.03;5128473;27;20050;-71
2021/11/09 02:25:04;;;;;;;10.05;6.15;;;;;;;7.99;68.04;100921.59;5127775;27;20043;-69
2021/11/09 02:27:32;;;;;;;11.63;6.15;;;;;;;7.98;67.97;100933.06;5128259;27;20487;-71
2021/11/09 02:29:59;;;;;;;16.25;9.88;;;;;;;7.95;68.13;100941.09;5126463;27;20672;-70
2021/11/09 02:32:26;;;;;;;16.02;8.80;;;;;;;7.91;68.24;100942.19;5128300;27;20047;-71
2021/11/09 02:34:53;;;;;;;15.98;9.32;;;;;;;7.87;68.39;100949.38;5127920;27;20186;-70
2021/11/09 02:37:21;;;;;;;14.02;8.13;;;;;;;7.85;68.31;100952.09;5127759;27;20103;-69
2021/11/09 02:39:49;;;;;;;12.52;8.35;;;;;;;7.85;68.29;100954.72;5128836;27;20478;-69
2021/11/09 02:42:19;;;;;;;13.90;8.35;;;;;;;7.83;68.28;100955.69;5128982;27;20051;-69
2021/11/09 02:44:51;;;;;;;15.25;7.40;;;;;;;7.80;68.34;100947.97;5127184;27;20573;-72
2021/11/09 02:47:20;;;;;;;16.65;8.23;;;;;;;7.74;68.36;100956.16;5127038;27;20616;-71
2021/11/09 02:49:54;;;;;;;13.77;8.15;;;;;;;7.68;68.31;100959.09;5128606;27;20047;-70
2021/11/09 02:52:22;;;;;;;15.37;7.73;;;;;;;7.63;68.44;100956.69;5128080;27;20043;-71
2021/11/09 02:54:56;;;;;;;15.10;7.95;;;;;;;7.55;68.49;100959.69;5127399;27;20123;-69
2021/11/09 02:57:29;;;;;;;14.27;7.95;;;;;;;7.47;68.44;100953.94;5128384;27;20084;-70
2021/11/09 03:00:01;;;;;;;17.20;7.18;;;;;;;7.38;68.56;100963.16;5126161;27;20043;-71
2021/11/09 03:02:37;;;;;;;14.38;7.43;;;;;;;7.32;68.78;100967.84;5126979;27;20584;-70
2021/11/09 03:05:10;;;;;;;13.98;7.10;;;;;;;7.24;68.68;100970.84;5127391;27;20063;-70
2021/11/09 03:07:41;;;;;;;12.57;8.57;;;;;;;7.17;68.78;100970.25;5127643;27;20126;-69
2021/11/09 03:10:20;;;;;;;12.65;7.22;;;;;;;7.13;68.86;100973.09;5126908;27;20058;-70
2021/11/09 03:12:47;;;;;;;16.25;7.22;;;;;;;7.05;68.85;100979.56;5127021;27;20084;-70
2021/11/09 03:15:18;;;;;;;13.20;6.88;;;;;;;7.06;68.76;100985.69;5126910;27;20057;-70
2021/11/09 03:17:48;;;;;;;13.23;7.45;;;;;;;6.99;68.78;100989.50;5127016;27;20047;-69
2021/11/09 03:20:21;;;;;;;16.42;7.15;;;;;;;6.93;68.92;100988.00;5126585;27;20043;-69
2021/11/09 03:45:04;;;;;;;15.45;7.50;;;;;;;6.43;68.94;101018.19;5126714;27;20668;-69
2021/11/09 03:47:35;;;;;;;22.15;9.30;;;;;;;6.39;69.03;101024.50;5126900;27;20050;-71
2021/11/09 03:50:02;;;;;;;13.38;7.10;;;;;;;6.35;69.04;101028.16;5126646;27;20046;-71
2021/11/09 03:52:31;;;;;;;15.43;8.95;;;;;;;6.39;68.96;101019.25;5126962;27;20665;-73
2021/11/09 03:55:01;;;;;;;20.10;10.07;;;;;;;6.32;68.85;101029.16;5126712;27;20130;-73
2021/11/09 03:57:32;;;;;;;15.88;8.20;;;;;;;6.25;68.94;101025.09;5126592;27;20058;-70
2021/11/09 04:00:11;;;;;;;19.35;8.77;;;;;;;6.19;69.07;101033.19;5124330;27;20149;-70
2021/11/09 04:02:47;;;;;;;16.88;9.18;;;;;;;6.15;69.05;101038.66;5126926;27;20092;-71
2021/11/09 04:05:18;;;;;;;14.23;7.82;;;;;;;6.11;69.05;101030.91;5126392;27;20039;-75
2021/11/09 04:07:50;;;;;;;16.17;7.80;;;;;;;6.07;69.02;101034.56;5126328;27;20130;-72
2021/11/09 04:10:25;;;;;;;16.73;8.18;;;;;;;6.03;68.88;101034.75;5127654;27;20587;-74
2021/11/09 04:13:03;;;;;;;16.17;8.45;;;;;;;5.98;68.96;101034.09;5126315;27;20043;-72
2021/11/09 04:15:54;;;;;;;17.90;8.85;;;;;;;5.94;68.84;101038.56;5126488;27;20069;-73
2021/11/09 04:18:34;;;;;;;15.50;8.55;;;;;;;5.90;68.75;101045.69;5126966;27;20055;-70
2021/11/09 04:21:19;;;;;;;16.15;8.68;;;;;;;5.82;68.91;101050.41;5126424;27;20047;-70
2021/11/09 05:02:48;;;;;;;19.90;10.40;;;;;;;5.28;68.53;101131.06;4816347;29;20483;-73
2021/11/09 05:08:26;;;;;;;21.90;10.00;;;;;;;5.13;68.73;101137.72;4850007;29;20206;-69
2021/11/09 05:10:55;;;;;;;19.35;9.63;;;;;;;5.02;68.90;101139.00;4886649;29;20071;-69
2021/11/09 05:13:22;;;;;;;19.65;9.30;;;;;;;4.95;68.95;101148.81;4891885;29;20048;-70
2021/11/09 05:15:50;;;;;;;17.95;8.52;;;;;;;4.90;69.10;101153.38;4924213;28;20051;-68
2021/11/09 05:18:18;;;;;;;20.23;8.07;;;;;;;4.90;68.89;101164.72;4962158;28;20047;-70
2021/11/09 05:20:45;;;;;;;27.73;11.15;;;;;;;4.87;68.87;101169.19;4965891;28;20053;-71
2021/11/09 05:23:13;;;;;;;28.55;13.60;;;;;;;4.85;69.00;101171.84;4965411;28;20506;-73
2021/11/09 05:25:39;;;;;;;34.08;14.38;;;;;;;4.95;68.92;101185.47;4966753;28;20054;-72
2021/11/09 05:28:08;;;;;;;24.50;12.75;;;;;;;5.13;68.95;101195.34;4988149;28;20570;-69
2021/11/09 05:30:37;;;;;;;29.23;12.98;;;;;;;5.29;68.54;101197.41;5021263;28;20112;-71
2021/11/09 05:33:06;;;;;;;29.60;13.48;;;;;;;5.43;68.33;101200.38;5029145;27;20056;-68
2021/11/09 05:35:35;;;;;;;30.00;11.98;;;;;;;5.58;68.23;101208.59;5128793;27;20066;-72
2021/11/09 05:38:03;;;;;;;27.65;12.77;;;;;;;5.68;68.04;101210.00;5129020;27;20047;-72
2021/11/09 05:40:33;;;;;;;31.08;13.70;;;;;;;5.77;67.99;101222.75;5130027;27;20104;-74
2021/11/09 05:43:01;;;;;;;27.38;12.80;;;;;;;5.84;68.01;101221.63;5129383;27;20078;-73
2021/11/09 05:45:28;;;;;;;30.10;13.60;;;;;;;5.91;68.11;101224.88;5129227;27;20051;-74
2021/11/09 05:47:56;;;;;;;26.73;14.95;;;;;;;5.97;67.93;101222.03;5123634;27;20047;-76
2021/11/09 05:50:24;;;;;;;34.00;18.25;;;;;;;5.98;67.98;101229.00;5122831;27;20065;-75
2021/11/09 05:52:53;;;;;;;30.33;15.38;;;;;;;5.98;68.09;101230.75;5114309;28;20085;-75
2021/11/09 05:55:20;;;;;;;26.98;14.50;;;;;;;6.01;68.10;101241.13;5108996;28;20051;-75
2021/11/09 05:57:47;;;;;;;23.92;13.75;;;;;;;6.09;67.96;101241.72;5112045;28;20058;-75
2021/11/09 06:00:15;;;;;;;34.45;14.73;;;;;;;6.15;67.86;101256.34;5112675;28;20059;-74
2021/11/09 06:02:43;;;;;;;34.65;13.98;;;;;;;6.17;67.79;101265.88;5117198;27;20061;-76
2021/11/09 06:05:10;;;;;;;52.00;16.13;;;;;;;6.11;67.92;101266.97;5130094;27;20447;-75
2021/11/09 06:07:37;;;;;;;35.97;15.60;;;;;;;6.13;67.97;101269.53;5128664;27;20047;-74
2021/11/09 06:10:07;;;;;;;34.85;14.27;;;;;;;6.13;67.76;101282.66;5129045;27;20047;-77
2021/11/09 06:12:35;;;;;;;33.03;15.13;;;;;;;6.03;67.95;101274.28;5131279;27;20047;-75
2021/11/09 06:15:02;;;;;;;29.20;12.63;;;;;;;5.96;67.89;101283.28;5128354;27;20609;-77
2021/11/09 06:17:29;;;;;;;30.25;15.48;;;;;;;5.90;68.06;101286.91;5128697;27;20126;-78
2021/11/09 06:19:56;;;;;;;29.98;15.32;;;;;;;5.87;68.12;101288.81;5128493;27;20474;-76
2021/11/09 06:22:23;;;;;;;24.73;13.40;;;;;;;5.87;68.20;101305.41;5128884;27;20050;-79
2021/11/09 06:24:50;;;;;;;26.27;13.45;;;;;;;5.86;68.06;101298.44;5130633;27;20067;-81
2021/11/09 06:27:19;;;;;;;27.33;12.18;;;;;;;5.86;68.20;101305.47;5129925;27;20077;-79
2021/11/09 06:29:46;;;;;;;26.42;11.90;;;;;;;5.94;67.89;101309.53;5128174;27;20047;-79
2021/11/09 06:32:15;;;;;;;26.60;9.98;;;;;;;5.92;67.84;101308.72;5127013;27;20047;-72
2021/11/09 06:34:42;;;;;;;32.42;10.05;;;;;;;5.85;67.91;101316.84;5125717;27;20190;-71
2021/11/09 06:37:09;;;;;;;16.45;10.40;;;;;;;5.81;67.95;101321.34;5125928;27;20043;-71
2021/11/09 06:39:36;;;;;;;17.45;9.35;;;;;;;5.82;67.94;101324.84;5125881;27;20055;-68
2021/11/09 06:42:04;;;;;;;23.08;9.27;;;;;;;5.80;67.88;101327.50;5125317;27;20584;-75
2021/11/09 06:44:33;;;;;;;32.95;12.77;;;;;;;5.75;67.77;101337.31;5125111;27;20075;-73
2021/11/09 06:47:00;;;;;;;36.72;11.98;;;;;;;5.71;67.92;101338.31;5128849;27;20043;-75
2021/11/09 06:49:27;;;;;;;25.42;10.35;;;;;;;5.77;67.88;101345.13;5128242;27;20051;-74
2021/11/09 06:51:54;;;;;;;24.08;10.93;;;;;;;5.86;67.57;101361.38;5127291;27;20634;-73
2021/11/09 06:54:21;;;;;;;31.05;10.98;;;;;;;5.81;67.55;101362.44;5127967;27;20069;-75
2021/11/09 06:56:49;;;;;;;34.50;12.07;;;;;;;5.76;67.72;101370.44;5126533;27;20678;-73
2021/11/09 06:59:18;;;;;;;45.03;13.00;;;;;;;5.75;67.56;101374.00;5125989;27;20043;-73
2021/11/09 07:01:47;;;;;;;52.55;13.50;;;;;;;5.74;67.79;101375.78;5130017;27;20047;-73
2021/11/09 07:04:15;;;;;;;67.93;15.30;;;;;;;5.79;67.72;101386.09;5129148;27;20479;-72
2021/11/09 07:06:42;;;;;;;51.63;12.32;;;;;;;5.88;67.51;101391.00;5127470;27;20062;-72
2021/11/09 07:09:09;;;;;;;46.05;13.05;;;;;;;5.97;67.23;101392.50;5127252;27;20154;-73
2021/11/09 07:11:36;;;;;;;34.22;12.90;;;;;;;6.06;67.10;101400.03;5128405;27;20059;-73
2021/11/09 07:14:03;;;;;;;35.45;14.15;;;;;;;6.18;66.99;101404.00;5128431;27;20502;-73
2021/11/09 07:16:30;;;;;;;30.88;14.48;;;;;;;6.28;66.80;101413.25;5127074;27;20039;-74
2021/11/09 07:19:02;;;;;;;40.13;16.60;;;;;;;6.31;66.81;101418.38;5128418;27;20053;-73
2021/11/09 07:21:30;;;;;;;41.38;16.38;;;;;;;6.34;66.65;101419.16;5125911;27;20076;-72
2021/11/09 07:23:59;;;;;;;46.17;15.57;;;;;;;6.31;66.61;101428.88;5125483;27;20071;-72
2021/11/09 07:26:27;;;;;;;43.63;15.30;;;;;;;6.40;66.62;101432.09;5124646;27;20392;-74
2021/11/09 07:28:56;;;;;;;39.60;15.57;;;;;;;6.43;66.64;101437.25;5124622;27;20071;-73
2021/11/09 07:31:24;;;;;;;46.42;15.63;;;;;;;6.43;66.54;101443.34;5125767;27;20463;-72
2021/11/09 07:33:51;;;;;;;34.47;14.40;;;;;;;6.42;66.63;101444.22;5124404;27;20067;-74
2021/11/09 07:36:20;;;;;;;71.28;19.70;;;;;;;6.47;66.50;101441.44;5126487;27;20047;-73
2021/11/09 07:38:47;;;;;;;73.55;18.77;;;;;;;6.47;66.39;101452.81;5126424;27;20167;-73
2021/11/09 07:41:15;;;;;;;120.00;19.45;;;;;;;6.40;66.46;101451.31;5126415;27;20048;-72
2021/11/09 07:43:42;;;;;;;80.75;19.25;;;;;;;6.30;66.61;101457.78;5126925;27;20592;-73
2021/11/09 07:46:09;;;;;;;68.05;20.10;;;;;;;6.40;66.66;101460.97;5126058;27;20054;-73
2021/11/09 07:48:36;;;;;;;72.82;22.15;;;;;;;6.63;66.17;101462.75;5127221;27;20043;-72
2021/11/09 07:51:03;;;;;;;80.13;23.77;;;;;;;6.80;65.82;101465.59;5127770;27;20083;-74
2021/11/09 07:53:35;;;;;;;80.40;24.63;;;;;;;6.97;65.63;101471.97;5124396;27;20054;-73
2021/11/09 07:56:12;;;;;;;56.80;18.98;;;;;;;7.08;65.24;101470.66;5124729;27;20070;-73
2021/11/09 07:58:45;;;;;;;74.47;18.92;;;;;;;7.17;65.38;101469.47;5123781;27;20053;-73
2021/11/09 08:01:14;;;;;;;67.43;14.68;;;;;;;7.22;65.03;101474.53;5127323;27;20259;-73
2021/11/09 08:03:47;;;;;;;42.45;13.07;;;;;;;7.07;65.41;101473.34;5124778;27;20051;-73
2021/11/09 08:06:19;;;;;;;62.63;16.27;;;;;;;7.02;65.48;101488.44;5125182;27;20044;-74
2021/11/09 08:08:58;;;;;;;43.53;12.13;;;;;;;7.00;65.50;101487.63;5124715;27;20055;-73
2021/11/09 08:11:25;;;;;;;34.15;10.55;;;;;;;7.18;65.25;101497.44;5125508;27;20486;-75
2021/11/09 08:13:52;;;;;;;71.47;14.95;;;;;;;7.34;65.15;101492.44;5125073;27;20598;-75
2021/11/09 08:16:19;;;;;;;23.60;10.27;;;;;;;7.39;64.88;101501.00;5131254;27;20069;-74
2021/11/09 08:18:47;;;;;;;71.40;13.90;;;;;;;7.40;64.46;101497.47;5125951;27;20050;-72
2021/11/09 08:21:14;;;;;;;78.25;15.35;;;;;;;7.43;64.55;101497.34;5125712;27;20451;-74
2021/11/09 08:23:47;;;;;;;86.70;17.33;;;;;;;7.46;64.29;101502.47;5125243;27;20495;-75
2021/11/09 08:26:16;;;;;;;62.53;13.68;;;;;;;7.38;64.08;101512.47;5123326;27;20130;-74
2021/11/09 08:28:43;;;;;;;76.25;15.10;;;;;;;7.41;64.30;101512.31;5123379;27;20043;-72
2021/11/09 08:31:12;;;;;;;47.42;11.10;;;;;;;7.45;64.35;101515.69;5128243;27;20047;-72
2021/11/09 08:33:39;;;;;;;32.38;11.35;;;;;;;7.45;64.56;101511.31;5126881;27;20058;-75
2021/11/09 08:36:09;;;;;;;20.45;10.30;;;;;;;7.61;64.40;101510.69;5132443;27;20047;-73
2021/11/09 08:38:37;;;;;;;21.95;10.68;;;;;;;7.71;64.27;101522.53;5127427;27;20113;-73
2021/11/09 08:41:05;;;;;;;21.45;9.35;;;;;;;7.85;64.04;101525.47;5124468;27;20492;-72
2021/11/09 08:43:36;;;;;;;29.48;9.95;;;;;;;8.02;63.83;101518.66;5124853;27;20131;-73
2021/11/09 08:46:09;;;;;;;22.95;10.73;;;;;;;8.09;63.59;101529.78;5124062;27;20059;-74
2021/11/09 08:48:39;;;;;;;21.23;11.13;;;;;;;8.17;63.47;101531.16;5125143;28;20063;-73
2021/11/09 08:51:09;;;;;;;18.98;9.70;;;;;;;8.24;63.44;101531.75;5124689;28;20127;-74
2021/11/09 08:53:40;;;;;;;22.33;9.65;;;;;;;8.24;63.18;101535.25;5124034;28;20148;-72
2021/11/09 08:56:19;;;;;;;22.33;10.52;;;;;;;8.28;63.24;101543.88;5124770;28;20047;-72
2021/11/09 09:04:11;;;;;;;44.72;12.57;;;;;;;7.85;63.17;101551.78;5134956;27;20050;-77
2021/11/09 09:04:29;;;;;;;28.23;11.13;;;;;;;7.61;62.79;101550.97;5127837;28;20652;-74
2021/11/09 09:06:59;;;;;;;44.22;13.98;;;;;;;7.51;63.29;101560.16;5126406;27;20173;-74
2021/11/09 09:09:27;;;;;;;45.25;15.00;;;;;;;7.40;63.37;101565.81;5130061;27;20051;-74
2021/11/09 09:11:54;;;;;;;19.25;10.77;;;;;;;7.44;63.47;101575.28;5129565;27;20095;-77
2021/11/09 09:14:25;;;;;;;30.17;11.20;;;;;;;7.66;63.54;101577.09;5131254;27;20047;-78
2021/11/09 09:16:54;;;;;;;33.25;11.63;;;;;;;7.90;62.98;101579.66;5131624;27;20047;-75
2021/11/09 09:19:26;;;;;;;21.35;10.75;;;;;;;7.99;63.12;101587.19;5128918;27;20047;-79
2021/11/09 09:22:01;;;;;;;22.58;11.77;;;;;;;8.19;62.93;101591.63;5130405;27;20088;-76
2021/11/09 09:24:36;;;;;;;23.88;12.02;;;;;;;8.34;62.68;101583.13;5130079;27;20075;-80
2021/11/09 09:27:13;;;;;;;24.85;12.23;;;;;;;8.52;62.65;101585.94;5129202;27;20050;-81
2021/11/09 09:29:53;;;;;;;19.48;10.10;;;;;;;8.72;62.48;101596.47;5127780;27;20378;-76
2021/11/09 09:32:42;;;;;;;22.50;11.38;;;;;;;8.74;62.09;101594.59;5137249;27;20134;-76
2021/11/09 09:54:42;;;;;;;17.77;9.60;;;;;;;9.10;61.83;101622.06;5025358;28;20532;-73
2021/11/09 09:57:09;;;;;;;17.08;8.82;;;;;;;9.43;61.49;101617.03;5027475;28;20521;-73
2021/11/09 09:59:38;;;;;;;17.80;10.20;;;;;;;9.62;60.93;101624.13;5021720;28;20049;-71
2021/11/09 10:02:13;;;;;;;14.35;9.68;;;;;;;9.67;61.08;101622.97;5021013;28;20519;-71
2021/11/09 10:04:42;;;;;;;11.80;8.48;;;;;;;9.67;60.72;101619.44;5022056;28;20897;-74
2021/11/09 10:07:10;;;;;;;15.93;9.43;;;;;;;9.68;60.56;101614.09;5023754;28;20624;-72
2021/11/09 10:09:40;;;;;;;14.38;9.43;;;;;;;9.76;60.39;101619.88;5023198;28;20583;-73
2021/11/09 10:12:31;;;;;;;14.82;8.73;;;;;;;9.46;61.17;101613.41;5023030;28;20107;-75
2021/11/09 10:15:01;;;;;;;17.00;10.25;;;;;;;9.33;61.70;101619.25;5048440;28;20048;-70
2021/11/09 10:17:31;;;;;;;15.57;9.27;;;;;;;9.38;61.43;101619.00;5060121;28;20056;-73
2021/11/09 10:20:00;;;;;;;14.88;8.98;;;;;;;9.37;61.33;101623.44;5044572;28;20527;-75
2021/11/09 10:22:29;;;;;;;12.40;7.45;;;;;;;9.33;61.29;101623.66;5028936;28;20628;-74
2021/11/09 10:25:00;;;;;;;14.65;7.85;;;;;;;9.30;61.13;101629.91;5045760;28;20049;-74
2021/11/09 10:27:30;;;;;;;15.48;8.45;;;;;;;9.22;61.02;101620.63;5062273;28;20041;-71
2021/11/09 10:29:57;;;;;;;11.52;8.20;;;;;;;9.20;61.17;101631.28;5068560;28;20048;-74
2021/11/09 10:32:27;;;;;;;16.88;8.73;;;;;;;9.16;61.13;101622.66;5110884;27;20663;-71
2021/11/09 10:34:57;;;;;;;14.25;8.95;;;;;;;9.18;61.16;101623.44;5124919;27;20061;-74
2021/11/09 10:37:26;;;;;;;14.95;9.95;;;;;;;9.29;60.68;101625.59;5124711;27;20047;-70
2021/11/09 10:39:56;;;;;;;13.38;8.93;;;;;;;9.34;60.69;101628.84;5125472;27;20051;-76
2021/11/09 10:42:24;;;;;;;16.65;9.15;;;;;;;9.40;60.34;101627.75;5125989;27;20092;-72
2021/11/09 10:44:56;;;;;;;17.08;10.25;;;;;;;9.06;61.01;101639.78;5124833;27;20531;-71
2021/11/09 10:47:27;;;;;;;12.00;7.95;;;;;;;8.99;61.23;101631.28;5124550;27;20043;-71
2021/11/09 10:49:58;;;;;;;18.48;12.40;;;;;;;8.69;59.76;101635.25;5127114;27;20055;-73
2021/11/09 10:52:29;;;;;;;19.63;13.32;;;;;;;8.63;60.32;101633.72;5124897;27;20054;-71
2021/11/09 10:55:07;;;;;;;20.45;12.18;;;;;;;8.63;59.89;101636.38;5125046;27;20129;-70
2021/11/09 10:57:42;;;;;;;22.15;13.25;;;;;;;8.75;59.59;101643.75;5126727;27;20047;-71
2021/11/09 11:00:21;;;;;;;18.63;11.32;;;;;;;8.89;59.70;101640.50;5123356;27;20039;-72
2021/11/09 11:05:34;;;;;;;24.42;14.60;;;;;;;9.04;60.38;101651.31;5124793;27;20050;-71
2021/11/09 11:08:01;;;;;;;24.50;14.38;;;;;;;9.10;60.32;101649.25;5124720;27;20063;-71
2021/11/09 11:10:35;;;;;;;20.65;13.40;;;;;;;8.97;60.68;101646.31;5124464;27;20674;-72
2021/11/09 11:13:25;;;;;;;21.77;12.98;;;;;;;9.17;60.91;101634.03;5124460;27;20047;-70
2021/11/09 11:16:05;;;;;;;18.73;12.00;;;;;;;9.03;61.08;101637.28;5123954;27;20039;-71
2021/11/09 11:18:33;;;;;;;17.48;12.88;;;;;;;8.81;61.64;101634.72;5126918;27;20043;-73
2021/11/09 11:21:02;;;;;;;20.88;12.52;;;;;;;8.74;62.10;101639.38;5127623;27;20116;-74
2021/11/09 11:23:30;;;;;;;20.38;12.25;;;;;;;8.79;61.95;101640.06;5125553;27;20138;-72
2021/11/09 11:25:58;;;;;;;19.38;11.82;;;;;;;8.74;62.10;101641.19;5124195;27;20082;-72
2021/11/09 11:28:26;;;;;;;18.17;11.07;;;;;;;8.69;62.38;101653.69;5121329;27;20094;-72
2021/11/09 11:30:55;;;;;;;21.13;12.68;;;;;;;8.66;62.26;101649.41;5124113;27;20505;-71
2021/11/09 11:33:22;;;;;;;18.63;10.93;;;;;;;8.82;62.18;101649.59;5124662;27;20051;-74
2021/11/09 11:35:50;;;;;;;16.63;10.82;;;;;;;8.96;61.91;101649.84;5124322;27;20043;-70
2021/11/09 11:38:20;;;;;;;15.77;11.77;;;;;;;8.99;61.95;101652.38;5124097;27;20055;-75
2021/11/09 11:40:50;;;;;;;22.33;13.52;;;;;;;8.97;61.96;101661.28;5124478;27;20134;-73
2021/11/09 11:43:50;;;;;;;17.88;10.93;;;;;;;8.98;62.02;101650.66;5123916;27;20047;-73
2021/11/09 11:46:37;;;;;;;13.93;8.25;;;;;;;9.04;61.84;101649.53;5124027;27;20582;-76
2021/11/09 11:49:06;;;;;;;13.57;8.52;;;;;;;9.06;61.90;101654.75;5124683;27;20046;-72
2021/11/09 11:51:35;;;;;;;15.30;8.35;;;;;;;9.00;62.24;101655.84;5125331;27;20039;-72
2021/11/09 11:54:07;;;;;;;16.58;10.90;;;;;;;9.05;62.27;101653.03;5127694;27;20058;-70
2021/11/09 11:56:50;;;;;;;14.38;9.68;;;;;;;9.14;62.26;101655.25;5125257;27;20043;-75
2021/11/09 11:59:40;;;;;;;14.52;9.23;;;;;;;9.13;62.01;101656.19;5124432;27;20070;-75
2021/11/09 12:02:08;;;;;;;14.63;9.73;;;;;;;9.09;61.99;101652.84;5126010;27;20047;-71
2021/11/09 12:04:54;;;;;;;14.40;8.50;;;;;;;9.10;62.04;101649.25;5126796;27;20119;-71
2021/11/09 12:07:23;;;;;;;16.10;9.18;;;;;;;9.09;62.04;101652.84;5127081;27;20135;-72
2021/11/09 12:10:04;;;;;;;15.50;8.38;;;;;;;9.26;62.04;101645.97;5128304;27;20042;-75
2021/11/09 12:12:33;;;;;;;16.05;8.30;;;;;;;9.43;61.22;101650.47;5138486;27;20049;-73
2021/11/09 12:15:03;;;;;;;16.73;10.85;;;;;;;9.25;61.56;101658.25;5121594;27;20086;-72
2021/11/09 12:17:38;;;;;;;16.33;10.82;;;;;;;9.25;61.59;101653.00;5139240;27;20214;-73
2021/11/09 12:20:07;;;;;;;16.02;11.10;;;;;;;9.47;61.20;101654.66;5120405;27;20050;-78
2021/11/09 12:22:50;;;;;;;15.25;9.02;;;;;;;9.55;61.05;101658.66;5140291;27;20475;-73
2021/11/09 12:25:37;;;;;;;15.38;8.98;;;;;;;9.61;61.28;101654.88;5137637;27;20118;-72
2021/11/09 12:28:07;;;;;;;17.92;9.57;;;;;;;9.54;61.11;101656.09;5117891;27;20054;-73
2021/11/09 12:30:45;;;;;;;15.90;7.85;;;;;;;9.56;61.27;101662.16;5134697;27;20066;-73
2021/11/09 12:33:15;;;;;;;16.58;11.25;;;;;;;9.68;60.68;101656.31;5126852;27;20047;-72
2021/11/09 12:35:44;;;;;;;15.95;9.10;;;;;;;9.91;60.41;101655.25;5127391;27;20044;-71
2021/11/09 12:38:18;;;;;;;14.45;9.40;;;;;;;10.36;59.58;101653.16;5128762;27;20047;-72
2021/11/09 12:40:50;;;;;;;13.68;7.65;;;;;;;10.79;58.59;101651.00;5128454;27;20110;-70
2021/11/09 12:43:25;;;;;;;8.93;5.38;;;;;;;10.86;58.27;101649.75;5126221;27;20069;-71
2021/11/09 12:46:01;;;;;;;9.50;5.00;;;;;;;10.81;58.21;101651.75;5125442;27;20039;-71
2021/11/09 12:48:32;;;;;;;9.48;5.97;;;;;;;10.71;58.21;101654.03;5124452;28;20039;-70
2021/11/09 12:51:02;;;;;;;9.15;6.20;;;;;;;10.47;58.47;101653.47;5125519;28;20047;-74
2021/11/09 12:53:30;;;;;;;9.13;5.50;;;;;;;10.30;58.70;101661.34;5126790;28;20053;-72
2021/11/09 12:56:04;;;;;;;9.52;6.45;;;;;;;10.21;59.00;101657.38;5129569;28;20043;-74
2021/11/09 12:58:34;;;;;;;11.77;5.88;;;;;;;10.21;58.74;101660.00;5123853;28;20039;-72
2021/11/09 13:01:32;;;;;;;9.35;6.70;;;;;;;10.19;58.93;101661.88;5124591;28;20096;-72
2021/11/09 13:04:09;;;;;;;9.02;5.35;;;;;;;10.13;58.85;101663.00;5125069;28;20084;-76
2021/11/09 13:06:46;;;;;;;9.80;6.07;;;;;;;10.12;59.09;101660.44;5125557;28;20078;-72